createdAt,value
2022-08-14T00:02:16.031Z,8.80
2022-08-14T00:04:45.475Z,9.80
2022-08-14T00:07:14.591Z,8.02
2022-08-14T00:09:55.843Z,6.30
2022-08-14T00:12:39.246Z,7.68
2022-08-14T00:15:15.777Z,7.70
2022-08-14T00:17:47.975Z,8.57
2022-08-14T00:20:31.044Z,10.77
2022-08-14T00:23:14.548Z,12.13
2022-08-14T00:25:58.662Z,4.88
2022-08-14T00:28:36.073Z,7.68
2022-08-14T00:31:07.742Z,6.43
2022-08-14T00:33:52.469Z,6.80
2022-08-14T00:36:36.688Z,8.93
2022-08-14T00:39:17.828Z,8.52
2022-08-14T00:41:47.315Z,6.70
2022-08-14T00:44:15.269Z,8.77
2022-08-14T00:46:54.620Z,7.78
2022-08-14T00:49:28.602Z,6.53
2022-08-14T00:52:00.534Z,9.30
2022-08-14T00:54:28.064Z,16.73
2022-08-14T00:56:56.176Z,10.43
2022-08-14T00:59:28.791Z,6.30
2022-08-14T01:01:58.840Z,9.38
2022-08-14T01:04:38.258Z,16.10
2022-08-14T01:07:20.544Z,13.65
2022-08-14T01:10:01.713Z,8.98
2022-08-14T01:12:30.976Z,10.05
2022-08-14T01:15:02.099Z,6.72
2022-08-14T01:17:50.804Z,8.02
2022-08-14T01:20:40.924Z,16.35
2022-08-14T01:23:16.379Z,10.75
2022-08-14T01:25:49.028Z,14.50
2022-08-14T01:28:46.921Z,10.23
2022-08-14T01:31:17.396Z,8.10
2022-08-14T01:35:15.991Z,7.57
2022-08-14T01:36:38.903Z,5.45
2022-08-14T01:39:13.425Z,10.32
2022-08-14T01:41:53.492Z,4.65
2022-08-14T01:44:33.055Z,7.93
2022-08-14T01:47:16.573Z,6.63
2022-08-14T01:49:59.623Z,6.05
2022-08-14T01:52:34.494Z,4.72
2022-08-14T01:55:20.032Z,8.55
2022-08-14T01:58:01.069Z,12.07
2022-08-14T02:00:30.944Z,5.57
2022-08-14T02:03:06.921Z,7.40
2022-08-14T02:05:38.708Z,7.03
2022-08-14T02:08:10.189Z,6.15
2022-08-14T02:10:47.315Z,7.32
2022-08-14T02:13:16.929Z,5.55
2022-08-14T02:15:48.643Z,6.05
2022-08-14T02:18:18.734Z,6.20
2022-08-14T02:20:47.744Z,4.57
2022-08-14T02:23:16.511Z,6.78
2022-08-14T02:28:57.670Z,5.95
2022-08-14T02:31:15.482Z,7.53
2022-08-14T02:33:44.980Z,7.18
2022-08-14T02:37:05.430Z,5.78
2022-08-14T02:39:01.414Z,5.63
2022-08-14T02:41:31.822Z,6.10
2022-08-14T02:44:06.341Z,11.27
2022-08-14T02:49:08.805Z,6.72
2022-08-14T02:51:38.341Z,9.10
2022-08-14T02:54:10.150Z,7.00
2022-08-14T02:57:14.254Z,6.68
2022-08-14T02:59:33.428Z,6.15
2022-08-14T03:02:03.137Z,6.53
2022-08-14T03:04:30.861Z,5.57
2022-08-14T03:07:07.267Z,6.43
2022-08-14T03:09:42.034Z,5.72
2022-08-14T03:15:14.267Z,5.20
2022-08-14T03:17:56.831Z,6.10
2022-08-14T03:20:30.152Z,6.57
2022-08-14T03:23:03.118Z,5.38
2022-08-14T03:25:33.990Z,3.78
2022-08-14T03:28:07.131Z,5.60
2022-08-14T03:30:39.936Z,7.90
2022-08-14T03:33:11.569Z,5.53
2022-08-14T03:35:59.995Z,5.45
2022-08-14T03:39:15.351Z,5.30
2022-08-14T03:41:26.222Z,8.25
2022-08-14T03:45:25.239Z,5.53
2022-08-14T03:46:56.070Z,4.70
2022-08-14T03:49:28.799Z,8.82
2022-08-14T03:52:01.134Z,6.40
2022-08-14T03:54:30.868Z,8.40
2022-08-14T03:57:02.735Z,8.70
2022-08-14T03:59:35.443Z,6.28
2022-08-14T04:02:04.832Z,6.90
2022-08-14T04:04:53.883Z,8.88
2022-08-14T04:07:24.081Z,7.38
2022-08-14T04:09:52.687Z,6.27
2022-08-14T04:12:26.383Z,7.28
2022-08-14T04:14:54.741Z,6.90
2022-08-14T04:17:22.989Z,4.93
2022-08-14T04:19:52.063Z,5.65
2022-08-14T04:22:21.979Z,6.50
2022-08-14T04:24:50.290Z,6.60
2022-08-14T04:27:18.668Z,6.18
2022-08-14T04:29:46.315Z,5.70
2022-08-14T04:32:57.570Z,7.53
2022-08-14T04:35:07.487Z,6.35
2022-08-14T04:37:56.734Z,8.75
2022-08-14T04:40:43.084Z,7.47
2022-08-14T04:43:38.671Z,8.77
2022-08-14T04:46:55.528Z,12.02
2022-08-14T04:49:08.024Z,8.20
2022-08-14T04:51:46.394Z,6.80
2022-08-14T04:54:14.998Z,4.47
2022-08-14T04:56:45.411Z,7.23
2022-08-14T04:59:13.577Z,6.68
2022-08-14T05:01:49.010Z,6.90
2022-08-14T05:04:20.186Z,6.47
2022-08-14T05:06:54.257Z,9.70
2022-08-14T05:09:29.129Z,8.15
2022-08-14T05:12:54.851Z,5.90
2022-08-14T05:14:55.086Z,5.93
2022-08-14T05:17:32.136Z,5.63
2022-08-14T05:21:55.107Z,5.05
2022-08-14T05:23:01.273Z,6.40
2022-08-14T05:25:30.629Z,6.25
2022-08-14T05:28:14.127Z,5.78
2022-08-14T05:30:44.642Z,11.05
2022-08-14T05:33:16.260Z,8.00
2022-08-14T05:35:44.590Z,5.72
2022-08-14T05:38:22.246Z,7.63
2022-08-14T05:40:59.889Z,8.90
2022-08-14T05:43:40.977Z,9.10
2022-08-14T05:46:15.782Z,7.28
2022-08-14T05:48:48.157Z,12.45
2022-08-14T05:51:16.178Z,5.80
2022-08-14T05:54:01.788Z,7.43
2022-08-14T05:56:32.903Z,7.80
2022-08-14T05:59:05.644Z,8.30
2022-08-14T06:01:35.599Z,8.23
2022-08-14T06:04:05.185Z,12.32
2022-08-14T06:06:38.147Z,16.80
2022-08-14T06:09:10.073Z,14.05
2022-08-14T06:11:39.385Z,20.52
2022-08-14T06:14:20.997Z,18.52
2022-08-14T06:16:52.036Z,16.08
2022-08-14T06:19:23.182Z,17.45
2022-08-14T06:21:59.027Z,15.27
2022-08-14T06:24:30.713Z,20.05
2022-08-14T06:27:06.436Z,22.55
2022-08-14T06:29:39.008Z,18.30
2022-08-14T06:32:38.050Z,21.25
2022-08-14T06:35:02.497Z,21.70
2022-08-14T06:37:49.236Z,18.33
2022-08-14T06:40:26.666Z,21.63
2022-08-14T06:43:00.219Z,26.48
2022-08-14T06:45:32.144Z,23.67
2022-08-14T06:48:01.321Z,26.08
2022-08-14T06:50:33.638Z,25.70
2022-08-14T06:53:01.955Z,28.48
2022-08-14T06:55:30.023Z,31.95
2022-08-14T06:57:58.141Z,30.90
2022-08-14T07:00:31.007Z,26.30
2022-08-14T07:03:19.377Z,28.35
2022-08-14T07:05:55.664Z,29.63
2022-08-14T07:08:31.579Z,26.80
2022-08-14T07:11:03.416Z,26.25
2022-08-14T07:13:31.336Z,25.77
2022-08-14T07:16:00.490Z,26.60
2022-08-14T07:18:34.957Z,21.25
2022-08-14T07:21:07.297Z,25.15
2022-08-14T07:23:40.229Z,18.10
2022-08-14T07:26:13.596Z,26.42
2022-08-14T07:28:43.569Z,19.85
2022-08-14T07:31:12.717Z,18.02
2022-08-14T07:33:50.041Z,21.67
2022-08-14T07:36:27.861Z,19.15
2022-08-14T07:39:03.570Z,17.83
2022-08-14T07:41:42.435Z,17.75
2022-08-14T07:44:32.141Z,18.60
2022-08-14T07:47:01.794Z,19.63
2022-08-14T07:49:35.679Z,16.95
2022-08-14T07:52:04.078Z,13.05
2022-08-14T07:54:31.860Z,12.75
2022-08-14T07:57:00.700Z,12.90
2022-08-14T07:59:40.930Z,16.10
2022-08-14T08:02:19.143Z,11.43
2022-08-14T08:04:58.793Z,10.23
2022-08-14T08:07:31.030Z,8.38
2022-08-14T08:10:02.145Z,8.32
2022-08-14T08:12:32.663Z,7.93
2022-08-14T08:15:05.983Z,9.20
2022-08-14T08:17:38.533Z,10.70
2022-08-14T08:20:11.707Z,7.72
2022-08-14T08:22:43.352Z,9.02
2022-08-14T08:25:18.137Z,5.53
2022-08-14T08:28:08.236Z,5.35
2022-08-14T08:30:49.231Z,8.50
2022-08-14T08:33:19.447Z,6.05
2022-08-14T08:35:50.624Z,8.27
2022-08-14T08:39:17.879Z,6.07
2022-08-14T08:41:11.189Z,8.68
2022-08-14T08:43:46.272Z,9.27
2022-08-14T08:46:23.851Z,9.18
2022-08-14T08:51:33.466Z,4.63
2022-08-14T08:54:15.359Z,7.88
2022-08-14T08:56:50.271Z,4.57
2022-08-14T08:59:27.187Z,5.60
2022-08-14T09:02:10.119Z,5.10
2022-08-14T09:04:45.593Z,5.45
2022-08-14T09:07:28.030Z,4.45
2022-08-14T09:09:59.121Z,5.65
2022-08-14T09:12:31.378Z,5.10
2022-08-14T09:15:12.431Z,7.63
2022-08-14T09:17:42.476Z,5.03
2022-08-14T09:20:12.434Z,7.33
2022-08-14T09:22:48.131Z,7.45
2022-08-14T09:25:19.507Z,10.13
2022-08-14T09:27:47.804Z,11.85
2022-08-14T09:30:32.374Z,9.05
2022-08-14T09:33:12.539Z,3.92
2022-08-14T09:35:59.319Z,6.18
2022-08-14T09:38:50.499Z,5.50
2022-08-14T09:42:21.586Z,8.88
2022-08-14T09:45:08.591Z,6.47
2022-08-14T09:47:52.803Z,3.72
2022-08-14T09:50:33.773Z,5.40
2022-08-14T09:53:05.841Z,2.85
2022-08-14T09:55:58.435Z,6.10
2022-08-14T09:58:40.970Z,3.70
2022-08-14T10:01:10.351Z,4.53
2022-08-14T10:03:52.423Z,4.95
2022-08-14T10:06:28.244Z,5.47
2022-08-14T10:09:03.459Z,6.93
2022-08-14T10:11:36.587Z,5.03
2022-08-14T10:14:35.038Z,4.47
2022-08-14T10:17:06.305Z,7.30
2022-08-14T10:19:36.435Z,5.38
2022-08-14T10:23:11.114Z,5.80
2022-08-14T10:24:59.787Z,7.22
2022-08-14T10:30:04.567Z,8.03
2022-08-14T10:32:51.487Z,5.72
2022-08-14T10:35:22.491Z,8.35
2022-08-14T10:37:52.626Z,3.88
2022-08-14T10:40:44.319Z,4.15
2022-08-14T10:43:27.844Z,3.85
2022-08-14T10:47:25.092Z,2.20
2022-08-14T10:49:02.854Z,3.13
2022-08-14T10:51:36.388Z,4.18
2022-08-14T10:54:34.946Z,9.35
2022-08-14T10:57:25.149Z,2.58
2022-08-14T10:59:58.859Z,3.40
2022-08-14T11:02:44.774Z,3.15
2022-08-14T11:05:19.231Z,3.97
2022-08-14T11:07:56.418Z,2.97
2022-08-14T11:10:38.462Z,4.90
2022-08-14T11:13:07.084Z,5.28
2022-08-14T11:15:36.097Z,4.40
2022-08-14T11:18:05.296Z,2.63
2022-08-14T11:20:33.625Z,2.42
2022-08-14T11:23:02.125Z,2.65
2022-08-14T11:25:43.243Z,5.90
2022-08-14T11:28:19.117Z,4.65
2022-08-14T11:30:53.806Z,3.28
2022-08-14T11:33:36.410Z,4.80
2022-08-14T11:36:17.838Z,3.35
2022-08-14T11:38:46.786Z,4.50
2022-08-14T11:41:19.220Z,3.33
2022-08-14T11:43:58.399Z,2.03
2022-08-14T11:46:30.388Z,4.28
2022-08-14T11:49:06.548Z,4.68
2022-08-14T11:51:36.107Z,1.95
2022-08-14T11:54:08.928Z,2.05
2022-08-14T11:56:40.049Z,4.00
2022-08-14T11:59:15.153Z,4.28
2022-08-14T12:01:42.859Z,3.15
2022-08-14T12:04:32.432Z,4.60
2022-08-14T12:07:01.782Z,4.15
2022-08-14T12:09:31.956Z,5.68
2022-08-14T12:12:01.109Z,2.58
2022-08-14T12:14:35.518Z,3.30
2022-08-14T12:17:12.695Z,6.28
2022-08-14T12:19:54.250Z,3.55
2022-08-14T12:22:37.403Z,4.32
2022-08-14T12:25:11.303Z,1.60
2022-08-14T12:27:53.075Z,3.20
2022-08-14T12:30:38.139Z,4.63
2022-08-14T12:33:34.051Z,4.28
2022-08-14T12:36:07.998Z,3.88
2022-08-14T12:38:45.729Z,2.25
2022-08-14T12:41:20.776Z,4.93
2022-08-14T12:43:56.667Z,3.85
2022-08-14T12:46:37.610Z,10.23
2022-08-14T12:49:17.170Z,2.67
2022-08-14T12:51:59.912Z,5.22
2022-08-14T12:54:32.482Z,4.82
2022-08-14T12:57:19.319Z,10.55
2022-08-14T12:59:49.238Z,4.22
2022-08-14T13:02:26.178Z,4.68
2022-08-14T13:04:56.760Z,2.67
2022-08-14T13:07:32.892Z,4.53
2022-08-14T13:10:34.355Z,2.05
2022-08-14T13:15:48.113Z,3.92
2022-08-14T13:18:26.568Z,3.08
2022-08-14T13:20:59.741Z,8.77
2022-08-14T13:23:36.248Z,6.95
2022-08-14T13:26:07.045Z,3.35
2022-08-14T13:29:01.520Z,4.80
2022-08-14T13:31:34.156Z,2.90
2022-08-14T13:34:04.477Z,3.55
2022-08-14T13:36:51.663Z,3.17
2022-08-14T13:39:22.561Z,3.83
2022-08-14T13:44:27.598Z,1.45
2022-08-14T13:46:55.977Z,2.38
2022-08-14T13:49:24.180Z,1.77
2022-08-14T13:51:58.898Z,6.03
2022-08-14T13:54:30.214Z,5.40
2022-08-14T13:57:01.417Z,4.55
2022-08-14T13:59:37.618Z,4.05
2022-08-14T14:02:08.185Z,3.50
2022-08-14T14:04:41.468Z,4.20
2022-08-14T14:07:13.195Z,2.35
2022-08-14T14:09:52.574Z,4.18
2022-08-14T14:12:37.665Z,5.07
2022-08-14T14:15:11.671Z,2.45
2022-08-14T14:17:40.274Z,3.83
2022-08-14T14:20:15.122Z,7.53
2022-08-14T14:23:02.147Z,6.95
2022-08-14T14:25:43.209Z,7.15
2022-08-14T14:28:24.356Z,3.33
2022-08-14T14:30:54.887Z,4.55
2022-08-14T14:33:46.668Z,3.95
2022-08-14T14:36:23.570Z,3.70
2022-08-14T14:38:54.282Z,3.17
2022-08-14T14:41:27.102Z,7.45
2022-08-14T14:44:08.908Z,4.88
2022-08-14T14:46:41.422Z,5.70
2022-08-14T14:49:14.953Z,2.90
2022-08-14T14:51:46.897Z,3.63
2022-08-14T14:54:31.440Z,3.40
2022-08-14T14:57:00.566Z,4.78
2022-08-14T14:59:33.531Z,4.10
2022-08-14T15:02:09.325Z,3.70
2022-08-14T15:04:39.070Z,4.78
2022-08-14T15:07:12.996Z,5.93
2022-08-14T15:09:40.965Z,9.37
2022-08-14T15:12:34.181Z,2.17
2022-08-14T15:15:08.205Z,1.90
2022-08-14T15:17:41.798Z,2.50
2022-08-14T15:20:17.134Z,2.25
2022-08-14T15:22:51.253Z,3.22
2022-08-14T15:25:19.275Z,3.20
2022-08-14T15:27:51.127Z,2.70
2022-08-14T15:30:24.332Z,5.20
2022-08-14T15:33:00.548Z,7.82
2022-08-14T15:35:29.613Z,8.40
2022-08-14T15:37:57.381Z,6.03
2022-08-14T15:40:26.157Z,5.80
2022-08-14T15:42:53.761Z,3.55
2022-08-14T15:45:23.917Z,2.95
2022-08-14T15:47:52.054Z,3.20
2022-08-14T15:50:19.958Z,2.92
2022-08-14T15:52:47.864Z,6.35
2022-08-14T15:55:16.420Z,9.68
2022-08-14T15:58:02.323Z,7.47
2022-08-14T16:00:54.953Z,5.50
2022-08-14T16:03:24.857Z,4.15
2022-08-14T16:05:55.872Z,2.55
2022-08-14T16:08:29.396Z,4.15
2022-08-14T16:11:07.113Z,3.20
2022-08-14T16:13:43.300Z,4.18
2022-08-14T16:16:47.243Z,4.22
2022-08-14T16:19:10.012Z,5.72
2022-08-14T16:22:02.030Z,4.78
2022-08-14T16:24:33.548Z,6.55
2022-08-14T16:27:05.099Z,3.85
2022-08-14T16:29:38.023Z,8.13
2022-08-14T16:32:33.262Z,4.80
2022-08-14T16:34:57.416Z,6.82
2022-08-14T16:37:30.511Z,3.88
2022-08-14T16:40:02.618Z,7.82
2022-08-14T16:43:03.337Z,5.68
2022-08-14T16:47:51.118Z,6.20
2022-08-14T16:50:43.350Z,2.92
2022-08-14T16:53:09.484Z,3.60
2022-08-14T16:55:53.913Z,3.25
2022-08-14T16:58:29.810Z,4.70
2022-08-14T17:01:22.763Z,5.55
2022-08-14T17:04:14.955Z,3.15
2022-08-14T17:06:55.324Z,5.18
2022-08-14T17:09:32.165Z,11.65
2022-08-14T17:12:08.466Z,8.90
2022-08-14T17:14:58.032Z,31.98
2022-08-14T17:17:58.243Z,18.50
2022-08-14T17:20:53.925Z,7.35
2022-08-14T17:23:16.569Z,5.93
2022-08-14T17:25:50.819Z,5.07
2022-08-14T17:28:51.115Z,8.60
2022-08-14T17:31:09.398Z,5.67
2022-08-14T17:33:40.940Z,3.63
2022-08-14T17:36:22.398Z,4.00
2022-08-14T17:39:08.883Z,3.00
2022-08-14T17:41:48.368Z,5.35
2022-08-14T17:44:45.005Z,2.67
2022-08-14T17:47:18.249Z,6.93
2022-08-14T17:49:51.995Z,7.13
2022-08-14T17:52:34.339Z,7.32
2022-08-14T17:55:09.827Z,7.88
2022-08-14T17:57:42.766Z,9.48
2022-08-14T18:00:14.715Z,8.73
2022-08-14T18:02:50.635Z,7.03
2022-08-14T18:05:22.944Z,26.98
2022-08-14T18:08:32.916Z,33.90
2022-08-14T18:10:55.109Z,10.77
2022-08-14T18:13:50.698Z,11.57
2022-08-14T18:16:20.646Z,3.55
2022-08-14T18:18:51.419Z,5.00
2022-08-14T18:21:39.969Z,7.38
2022-08-14T18:24:20.108Z,11.13
2022-08-14T18:27:23.214Z,7.85
2022-08-14T18:29:55.936Z,14.90
2022-08-14T18:32:32.768Z,9.98
2022-08-14T18:35:01.497Z,14.73
2022-08-14T18:37:32.986Z,8.20
2022-08-14T18:43:03.147Z,13.57
2022-08-14T18:45:41.483Z,19.88
2022-08-14T18:48:17.379Z,21.65
2022-08-14T18:50:56.646Z,14.95
2022-08-14T18:53:34.152Z,6.78
2022-08-14T18:56:10.079Z,9.68
2022-08-14T18:58:57.325Z,7.10
2022-08-14T19:01:33.399Z,8.13
2022-08-14T19:04:02.588Z,7.70
2022-08-14T19:09:05.777Z,9.20
2022-08-14T19:11:40.496Z,8.80
2022-08-14T19:14:14.902Z,8.02
2022-08-14T19:16:48.362Z,10.68
2022-08-14T19:19:24.060Z,5.50
2022-08-14T19:24:43.635Z,7.60
2022-08-14T19:27:23.733Z,11.00
2022-08-14T19:30:20.372Z,13.40
2022-08-14T19:32:53.037Z,7.38
2022-08-14T19:35:54.991Z,7.93
2022-08-14T19:38:47.735Z,9.95
2022-08-14T19:41:17.717Z,10.38
2022-08-14T19:43:56.070Z,11.88
2022-08-14T19:46:39.461Z,6.95
2022-08-14T19:49:23.190Z,5.53
2022-08-14T19:52:17.592Z,10.52
2022-08-14T19:54:50.536Z,7.07
2022-08-14T19:57:24.875Z,6.47
2022-08-14T20:00:28.143Z,7.35
2022-08-14T20:03:10.964Z,8.20
2022-08-14T20:05:45.381Z,6.95
2022-08-14T20:09:05.283Z,5.78
2022-08-14T20:11:44.642Z,11.30
2022-08-14T20:14:09.552Z,7.50
2022-08-14T20:16:44.475Z,7.88
2022-08-14T20:19:28.875Z,8.63
2022-08-14T20:22:35.151Z,8.80
2022-08-14T20:24:50.131Z,8.38
2022-08-14T20:27:38.662Z,9.20
2022-08-14T20:30:34.804Z,11.07
2022-08-14T20:33:10.631Z,12.15
2022-08-14T20:35:39.051Z,13.60
2022-08-14T20:38:30.648Z,13.25
2022-08-14T20:41:07.484Z,10.07
2022-08-14T20:43:59.727Z,13.75
2022-08-14T20:46:38.395Z,12.40
2022-08-14T20:49:08.597Z,13.27
2022-08-14T20:51:59.518Z,7.68
2022-08-14T20:54:34.358Z,10.90
2022-08-14T20:57:09.205Z,12.35
2022-08-14T20:59:43.325Z,12.25
2022-08-14T21:02:34.442Z,12.30
2022-08-14T21:05:16.879Z,8.93
2022-08-14T21:07:50.771Z,8.20
2022-08-14T21:10:33.149Z,11.02
2022-08-14T21:13:27.527Z,10.32
2022-08-14T21:15:58.183Z,9.75
2022-08-14T21:18:33.468Z,10.95
2022-08-14T21:21:08.016Z,14.70
2022-08-14T21:23:55.184Z,9.20
2022-08-14T21:26:50.521Z,7.90
2022-08-14T21:29:21.041Z,7.35
2022-08-14T21:31:55.546Z,6.97
2022-08-14T21:34:27.383Z,10.25
2022-08-14T21:37:09.013Z,8.20
2022-08-14T21:39:38.743Z,7.03
2022-08-14T21:42:06.765Z,6.00
2022-08-14T21:44:43.780Z,7.53
2022-08-14T21:47:15.993Z,8.18
2022-08-14T21:49:48.129Z,6.70
2022-08-14T21:52:51.013Z,6.93
2022-08-14T21:55:12.467Z,6.72
2022-08-14T21:58:45.825Z,5.95
2022-08-14T22:00:42.030Z,6.63
2022-08-14T22:03:16.981Z,5.47
2022-08-14T22:05:49.578Z,6.75
2022-08-14T22:08:20.043Z,4.38
2022-08-14T22:10:51.508Z,6.20
2022-08-14T22:13:24.688Z,5.78
2022-08-14T22:15:59.537Z,9.63
2022-08-14T22:18:29.871Z,6.85
2022-08-14T22:20:58.038Z,7.55
2022-08-14T22:23:27.204Z,6.50
2022-08-14T22:25:55.533Z,7.38
2022-08-14T22:28:32.787Z,3.17
2022-08-14T22:31:10.181Z,4.28
2022-08-14T22:33:40.714Z,3.55
2022-08-14T22:36:33.959Z,5.28
2022-08-14T22:39:11.088Z,4.25
2022-08-14T22:41:42.570Z,7.50
2022-08-14T22:44:15.051Z,6.68
2022-08-14T22:46:43.829Z,4.82
2022-08-14T22:49:16.935Z,4.53
2022-08-14T22:52:33.069Z,6.20
2022-08-14T22:54:54.899Z,5.80
2022-08-14T22:57:22.702Z,5.75
2022-08-14T22:59:50.422Z,8.13
2022-08-14T23:02:32.946Z,4.88
2022-08-14T23:05:05.066Z,6.43
2022-08-14T23:08:56.724Z,4.90
2022-08-14T23:10:32.168Z,4.90
2022-08-14T23:13:04.869Z,6.28
2022-08-14T23:15:34.316Z,4.10
2022-08-14T23:18:03.586Z,4.50
2022-08-14T23:20:33.667Z,3.05
2022-08-14T23:23:11.702Z,5.15
2022-08-14T23:25:59.050Z,4.93
2022-08-14T23:28:33.865Z,3.78
2022-08-14T23:31:34.305Z,5.05
2022-08-14T23:34:09.619Z,7.15
2022-08-14T23:36:53.573Z,2.88
2022-08-14T23:39:32.710Z,6.60
2022-08-14T23:42:07.388Z,5.43
2022-08-14T23:44:37.873Z,3.72
2022-08-14T23:47:12.031Z,6.80
2022-08-14T23:50:00.762Z,5.57
2022-08-14T23:53:05.941Z,3.97
2022-08-14T23:55:31.273Z,3.70
2022-08-14T23:58:02.137Z,2.95
